Terminal Aerodrome Forecast
Issued by NWS Nashville, TN

Home | Current Version | Previous Version | Text Only | Print | Product List | Glossary On
Versions: 1 2 3 4 5 6 7 8 9 10 11 12 13 14 15 16 17
000
FTUS44 KOHX 030526
TAFCSV
TAF
KCSV 030526Z 0306/0406 00000KT P6SM BKN200
     FM030800 00000KT 4SM BR BKN200
     FM031400 36003KT P6SM BKN080 BKN200
     FM040200 00000KT P6SM BKN200=

USA.gov is the U.S. government's official web portal to all federal, state and local government web resources and services.